Capitol Logistics 302


PHNL
Daniel K Inouye International Airport
Honolulu, Hawaii, US
PGUM
Guam International Airport
Guam, , GU

Route Details

Aircraft Information
Primary: Boeing 767-300BDSF
Backup: Not Available
Route Data
Distance: 3303nm
Sched. Duration: 7h 45m
Avg. Duration: 7h 96m (+51m)
Times Flown: 3
Recm'd Route: KEOLA2 NONNI BRIUN 2000N/17000W 1800N/18000E 1600N/17000E 1500N/16000E 1500N/15000E DEWSS
Planned Altitude: 34,000ft
Origin Wx: PHNL 291253Z 01003KT 10SM BKN050 23/21 A2985 RMK AO2 SLP108 T02280206
Dest. Wx: PGUM 291254Z 07007KT 10SM FEW075 27/24 A2984 RMK AO2 SLP095 OCNL LTGICCC DSNT E T02720244
Notes:

Financial History
Total Freight: 268,315lbs
Average Load: 89,438lbs/flt
Fuel Used: 262,759lbs
Avg. Fuel Used: 87,586lbs/flt
Fuel Expense: $181,304
Avg. Fuel Expense: $60,435
Avg. Fuel Cost: $0.69/lbs
Total Gross Income: $496,773
Pilot Pay: $687
Total Expenses: $53,808
Total Revenue: $255,321
Average Revenue: $165,591.16